sensor_id;sensor_type;location;lat;lon;timestamp;temperature;humidity
74336;DHT22;62755;-33.398;-70.572;2022-12-15T00:00:42;27.40;29.10
74336;DHT22;62755;-33.398;-70.572;2022-12-15T00:03:29;27.30;29.10
74336;DHT22;62755;-33.398;-70.572;2022-12-15T00:06:15;27.30;29.10
74336;DHT22;62755;-33.398;-70.572;2022-12-15T00:09:01;27.30;29.00
74336;DHT22;62755;-33.398;-70.572;2022-12-15T00:11:47;27.30;29.00
74336;DHT22;62755;-33.398;-70.572;2022-12-15T00:14:32;27.30;29.00
74336;DHT22;62755;-33.398;-70.572;2022-12-15T00:17:18;27.20;29.10
74336;DHT22;62755;-33.398;-70.572;2022-12-15T00:20:06;27.20;29.10
74336;DHT22;62755;-33.398;-70.572;2022-12-15T00:22:52;27.20;29.20
74336;DHT22;62755;-33.398;-70.572;2022-12-15T00:25:37;27.20;29.50
74336;DHT22;62755;-33.398;-70.572;2022-12-15T00:28:22;27.10;29.70
74336;DHT22;62755;-33.398;-70.572;2022-12-15T00:31:07;27.00;29.70
74336;DHT22;62755;-33.398;-70.572;2022-12-15T00:33:53;27.00;29.90
74336;DHT22;62755;-33.398;-70.572;2022-12-15T00:36:41;26.90;29.80
74336;DHT22;62755;-33.398;-70.572;2022-12-15T00:39:27;26.90;30.10
74336;DHT22;62755;-33.398;-70.572;2022-12-15T00:41:57;26.90;30.20
74336;DHT22;62755;-33.398;-70.572;2022-12-15T00:44:26;26.90;30.50
74336;DHT22;62755;-33.398;-70.572;2022-12-15T00:46:55;26.90;30.90
74336;DHT22;62755;-33.398;-70.572;2022-12-15T00:49:24;26.80;31.40
74336;DHT22;62755;-33.398;-70.572;2022-12-15T00:52:12;26.80;31.80
74336;DHT22;62755;-33.398;-70.572;2022-12-15T00:54:58;26.80;32.60
74336;DHT22;62755;-33.398;-70.572;2022-12-15T00:57:43;26.70;32.30
74336;DHT22;62755;-33.398;-70.572;2022-12-15T01:00:29;26.70;33.30
74336;DHT22;62755;-33.398;-70.572;2022-12-15T01:03:17;26.70;32.80
74336;DHT22;62755;-33.398;-70.572;2022-12-15T01:06:05;26.70;33.00
74336;DHT22;62755;-33.398;-70.572;2022-12-15T01:08:53;26.80;33.20
74336;DHT22;62755;-33.398;-70.572;2022-12-15T01:11:39;26.70;33.50
74336;DHT22;62755;-33.398;-70.572;2022-12-15T01:14:26;26.70;33.50
74336;DHT22;62755;-33.398;-70.572;2022-12-15T01:17:11;26.70;33.80
74336;DHT22;62755;-33.398;-70.572;2022-12-15T01:19:57;26.70;34.70
74336;DHT22;62755;-33.398;-70.572;2022-12-15T01:22:44;26.70;33.70
74336;DHT22;62755;-33.398;-70.572;2022-12-15T01:25:16;26.80;34.00
74336;DHT22;62755;-33.398;-70.572;2022-12-15T01:27:46;26.80;34.20
74336;DHT22;62755;-33.398;-70.572;2022-12-15T01:30:18;26.70;34.50
74336;DHT22;62755;-33.398;-70.572;2022-12-15T01:32:48;26.60;34.60
74336;DHT22;62755;-33.398;-70.572;2022-12-15T01:35:18;26.50;34.70
74336;DHT22;62755;-33.398;-70.572;2022-12-15T01:37:48;26.60;34.60
74336;DHT22;62755;-33.398;-70.572;2022-12-15T01:40:20;26.60;34.50
74336;DHT22;62755;-33.398;-70.572;2022-12-15T01:43:11;26.60;34.60
74336;DHT22;62755;-33.398;-70.572;2022-12-15T01:46:02;26.60;34.70
74336;DHT22;62755;-33.398;-70.572;2022-12-15T01:48:40;26.70;34.40
74336;DHT22;62755;-33.398;-70.572;2022-12-15T01:51:17;26.60;34.30
74336;DHT22;62755;-33.398;-70.572;2022-12-15T01:53:53;26.60;34.60
74336;DHT22;62755;-33.398;-70.572;2022-12-15T01:56:26;26.60;34.40
74336;DHT22;62755;-33.398;-70.572;2022-12-15T01:58:58;26.60;34.10
74336;DHT22;62755;-33.398;-70.572;2022-12-15T02:01:28;26.60;34.00
74336;DHT22;62755;-33.398;-70.572;2022-12-15T02:03:58;26.60;34.00
74336;DHT22;62755;-33.398;-70.572;2022-12-15T02:06:28;26.60;34.00
74336;DHT22;62755;-33.398;-70.572;2022-12-15T02:08:59;26.50;34.10
74336;DHT22;62755;-33.398;-70.572;2022-12-15T02:11:56;26.50;34.40
74336;DHT22;62755;-33.398;-70.572;2022-12-15T02:14:41;26.40;35.00
74336;DHT22;62755;-33.398;-70.572;2022-12-15T02:17:20;26.40;35.00
74336;DHT22;62755;-33.398;-70.572;2022-12-15T02:20:40;26.40;34.90
74336;DHT22;62755;-33.398;-70.572;2022-12-15T02:29:32;26.30;34.10
74336;DHT22;62755;-33.398;-70.572;2022-12-15T02:32:09;26.20;34.30
74336;DHT22;62755;-33.398;-70.572;2022-12-15T02:34:41;26.20;34.40
74336;DHT22;62755;-33.398;-70.572;2022-12-15T02:37:15;26.30;34.30
74336;DHT22;62755;-33.398;-70.572;2022-12-15T02:39:45;26.40;34.30
74336;DHT22;62755;-33.398;-70.572;2022-12-15T02:42:15;26.40;33.90
74336;DHT22;62755;-33.398;-70.572;2022-12-15T02:44:48;26.40;34.20
74336;DHT22;62755;-33.398;-70.572;2022-12-15T02:47:31;26.30;33.20
74336;DHT22;62755;-33.398;-70.572;2022-12-15T02:50:20;26.20;34.10
74336;DHT22;62755;-33.398;-70.572;2022-12-15T02:53:01;26.20;33.90
74336;DHT22;62755;-33.398;-70.572;2022-12-15T02:55:41;26.20;33.80
74336;DHT22;62755;-33.398;-70.572;2022-12-15T02:58:20;26.20;33.90
74336;DHT22;62755;-33.398;-70.572;2022-12-15T03:00:58;26.30;33.70
74336;DHT22;62755;-33.398;-70.572;2022-12-15T03:03:32;26.20;34.30
74336;DHT22;62755;-33.398;-70.572;2022-12-15T03:06:03;26.20;34.00
74336;DHT22;62755;-33.398;-70.572;2022-12-15T03:08:32;26.10;33.70
74336;DHT22;62755;-33.398;-70.572;2022-12-15T03:11:02;26.10;34.00
74336;DHT22;62755;-33.398;-70.572;2022-12-15T03:13:31;26.10;34.40
74336;DHT22;62755;-33.398;-70.572;2022-12-15T03:16:01;26.10;34.90
74336;DHT22;62755;-33.398;-70.572;2022-12-15T03:18:32;26.10;35.10
74336;DHT22;62755;-33.398;-70.572;2022-12-15T03:21:02;26.00;35.00
74336;DHT22;62755;-33.398;-70.572;2022-12-15T03:23:31;26.00;35.00
74336;DHT22;62755;-33.398;-70.572;2022-12-15T03:26:01;26.00;35.20
74336;DHT22;62755;-33.398;-70.572;2022-12-15T03:28:30;25.90;35.40
74336;DHT22;62755;-33.398;-70.572;2022-12-15T03:31:00;25.80;35.70
74336;DHT22;62755;-33.398;-70.572;2022-12-15T03:33:33;25.80;35.80
74336;DHT22;62755;-33.398;-70.572;2022-12-15T03:36:04;25.90;36.00
74336;DHT22;62755;-33.398;-70.572;2022-12-15T03:38:33;25.80;36.20
74336;DHT22;62755;-33.398;-70.572;2022-12-15T03:41:03;25.90;36.20
74336;DHT22;62755;-33.398;-70.572;2022-12-15T03:43:32;25.90;36.30
74336;DHT22;62755;-33.398;-70.572;2022-12-15T03:46:02;25.80;36.30
74336;DHT22;62755;-33.398;-70.572;2022-12-15T03:48:33;25.80;36.40
74336;DHT22;62755;-33.398;-70.572;2022-12-15T03:51:02;25.80;36.70
74336;DHT22;62755;-33.398;-70.572;2022-12-15T03:53:32;25.80;36.90
74336;DHT22;62755;-33.398;-70.572;2022-12-15T03:56:01;25.80;36.80
74336;DHT22;62755;-33.398;-70.572;2022-12-15T03:58:31;25.80;36.90
74336;DHT22;62755;-33.398;-70.572;2022-12-15T04:01:09;25.80;36.80
74336;DHT22;62755;-33.398;-70.572;2022-12-15T04:03:41;25.80;36.90
74336;DHT22;62755;-33.398;-70.572;2022-12-15T04:06:10;25.80;36.60
74336;DHT22;62755;-33.398;-70.572;2022-12-15T04:08:40;25.80;36.60
74336;DHT22;62755;-33.398;-70.572;2022-12-15T04:11:09;25.80;36.60
74336;DHT22;62755;-33.398;-70.572;2022-12-15T04:13:39;25.80;36.60
74336;DHT22;62755;-33.398;-70.572;2022-12-15T04:16:08;25.80;36.50
74336;DHT22;62755;-33.398;-70.572;2022-12-15T04:18:40;25.60;35.70
74336;DHT22;62755;-33.398;-70.572;2022-12-15T04:21:10;25.50;35.20
74336;DHT22;62755;-33.398;-70.572;2022-12-15T04:23:38;25.40;35.60
74336;DHT22;62755;-33.398;-70.572;2022-12-15T04:26:20;25.30;36.00
74336;DHT22;62755;-33.398;-70.572;2022-12-15T04:29:06;25.30;35.90
74336;DHT22;62755;-33.398;-70.572;2022-12-15T04:31:51;25.30;35.40
74336;DHT22;62755;-33.398;-70.572;2022-12-15T04:34:39;25.30;35.00
74336;DHT22;62755;-33.398;-70.572;2022-12-15T04:37:25;25.30;35.40
74336;DHT22;62755;-33.398;-70.572;2022-12-15T04:40:11;25.20;34.70
74336;DHT22;62755;-33.398;-70.572;2022-12-15T04:42:56;25.00;34.80
74336;DHT22;62755;-33.398;-70.572;2022-12-15T04:45:41;24.90;34.90
74336;DHT22;62755;-33.398;-70.572;2022-12-15T04:48:27;24.70;34.80
74336;DHT22;62755;-33.398;-70.572;2022-12-15T04:51:15;24.70;34.80
74336;DHT22;62755;-33.398;-70.572;2022-12-15T04:54:01;24.70;34.70
74336;DHT22;62755;-33.398;-70.572;2022-12-15T04:56:46;24.80;34.90
74336;DHT22;62755;-33.398;-70.572;2022-12-15T04:59:32;24.80;34.90
74336;DHT22;62755;-33.398;-70.572;2022-12-15T05:02:18;24.70;34.80
74336;DHT22;62755;-33.398;-70.572;2022-12-15T05:05:04;24.60;34.90
74336;DHT22;62755;-33.398;-70.572;2022-12-15T05:07:54;24.60;35.10
74336;DHT22;62755;-33.398;-70.572;2022-12-15T05:10:41;24.60;35.30
74336;DHT22;62755;-33.398;-70.572;2022-12-15T05:13:26;24.70;35.20
74336;DHT22;62755;-33.398;-70.572;2022-12-15T05:16:12;24.70;35.40
74336;DHT22;62755;-33.398;-70.572;2022-12-15T05:18:58;24.70;35.70
74336;DHT22;62755;-33.398;-70.572;2022-12-15T05:21:44;24.80;35.60
74336;DHT22;62755;-33.398;-70.572;2022-12-15T05:24:31;24.80;36.10
74336;DHT22;62755;-33.398;-70.572;2022-12-15T05:27:17;24.70;35.10
74336;DHT22;62755;-33.398;-70.572;2022-12-15T05:30:04;24.60;35.10
74336;DHT22;62755;-33.398;-70.572;2022-12-15T05:32:50;24.60;35.10
74336;DHT22;62755;-33.398;-70.572;2022-12-15T05:35:19;24.50;34.90
74336;DHT22;62755;-33.398;-70.572;2022-12-15T05:37:49;24.50;35.00
74336;DHT22;62755;-33.398;-70.572;2022-12-15T05:40:20;24.50;35.00
74336;DHT22;62755;-33.398;-70.572;2022-12-15T05:42:49;24.50;35.10
74336;DHT22;62755;-33.398;-70.572;2022-12-15T05:45:19;24.50;35.00
74336;DHT22;62755;-33.398;-70.572;2022-12-15T05:47:50;24.50;34.90
74336;DHT22;62755;-33.398;-70.572;2022-12-15T05:50:21;24.60;34.90
74336;DHT22;62755;-33.398;-70.572;2022-12-15T05:52:51;24.60;34.80
74336;DHT22;62755;-33.398;-70.572;2022-12-15T05:55:23;24.60;34.70
74336;DHT22;62755;-33.398;-70.572;2022-12-15T05:57:53;24.60;34.60
74336;DHT22;62755;-33.398;-70.572;2022-12-15T06:00:22;24.60;34.60
74336;DHT22;62755;-33.398;-70.572;2022-12-15T06:02:52;24.60;34.60
74336;DHT22;62755;-33.398;-70.572;2022-12-15T06:05:21;24.60;34.50
74336;DHT22;62755;-33.398;-70.572;2022-12-15T06:07:51;24.70;34.50
74336;DHT22;62755;-33.398;-70.572;2022-12-15T06:10:22;24.70;34.30
74336;DHT22;62755;-33.398;-70.572;2022-12-15T06:12:51;24.80;34.30
74336;DHT22;62755;-33.398;-70.572;2022-12-15T06:15:21;24.80;34.10
74336;DHT22;62755;-33.398;-70.572;2022-12-15T06:17:50;24.80;34.20
74336;DHT22;62755;-33.398;-70.572;2022-12-15T06:20:21;24.80;34.20
74336;DHT22;62755;-33.398;-70.572;2022-12-15T06:22:51;24.80;34.20
74336;DHT22;62755;-33.398;-70.572;2022-12-15T06:25:22;24.80;34.10
74336;DHT22;62755;-33.398;-70.572;2022-12-15T06:27:51;24.80;34.10
74336;DHT22;62755;-33.398;-70.572;2022-12-15T06:30:21;24.70;34.20
74336;DHT22;62755;-33.398;-70.572;2022-12-15T06:32:50;24.70;34.20
74336;DHT22;62755;-33.398;-70.572;2022-12-15T06:35:20;24.70;34.20
74336;DHT22;62755;-33.398;-70.572;2022-12-15T06:37:50;24.60;34.20
74336;DHT22;62755;-33.398;-70.572;2022-12-15T06:40:19;24.40;34.50
74336;DHT22;62755;-33.398;-70.572;2022-12-15T06:42:50;24.20;34.80
74336;DHT22;62755;-33.398;-70.572;2022-12-15T06:45:20;24.00;35.00
74336;DHT22;62755;-33.398;-70.572;2022-12-15T06:47:49;23.60;35.20
74336;DHT22;62755;-33.398;-70.572;2022-12-15T06:50:19;23.50;35.40
74336;DHT22;62755;-33.398;-70.572;2022-12-15T06:52:48;23.60;35.30
74336;DHT22;62755;-33.398;-70.572;2022-12-15T06:55:18;23.70;35.30
74336;DHT22;62755;-33.398;-70.572;2022-12-15T06:57:49;23.80;35.10
74336;DHT22;62755;-33.398;-70.572;2022-12-15T07:00:19;23.90;35.00
74336;DHT22;62755;-33.398;-70.572;2022-12-15T07:02:48;24.00;35.10
74336;DHT22;62755;-33.398;-70.572;2022-12-15T07:05:18;24.00;35.10
74336;DHT22;62755;-33.398;-70.572;2022-12-15T07:07:47;23.80;35.30
74336;DHT22;62755;-33.398;-70.572;2022-12-15T07:10:17;23.60;35.60
74336;DHT22;62755;-33.398;-70.572;2022-12-15T07:12:46;23.50;35.70
74336;DHT22;62755;-33.398;-70.572;2022-12-15T07:15:18;23.60;35.70
74336;DHT22;62755;-33.398;-70.572;2022-12-15T07:17:47;23.60;35.60
74336;DHT22;62755;-33.398;-70.572;2022-12-15T07:20:17;23.70;35.40
74336;DHT22;62755;-33.398;-70.572;2022-12-15T07:22:50;23.80;35.40
74336;DHT22;62755;-33.398;-70.572;2022-12-15T07:25:20;23.80;35.50
74336;DHT22;62755;-33.398;-70.572;2022-12-15T07:27:49;23.80;35.40
74336;DHT22;62755;-33.398;-70.572;2022-12-15T07:30:20;23.80;35.30
74336;DHT22;62755;-33.398;-70.572;2022-12-15T07:32:50;23.80;35.20
74336;DHT22;62755;-33.398;-70.572;2022-12-15T07:35:19;23.80;35.30
74336;DHT22;62755;-33.398;-70.572;2022-12-15T07:37:49;23.60;35.50
74336;DHT22;62755;-33.398;-70.572;2022-12-15T07:40:19;23.60;35.70
74336;DHT22;62755;-33.398;-70.572;2022-12-15T07:42:48;23.60;35.80
74336;DHT22;62755;-33.398;-70.572;2022-12-15T07:45:20;23.50;35.80
74336;DHT22;62755;-33.398;-70.572;2022-12-15T07:47:50;23.50;36.00
74336;DHT22;62755;-33.398;-70.572;2022-12-15T07:50:19;23.50;35.90
74336;DHT22;62755;-33.398;-70.572;2022-12-15T07:52:50;23.50;36.00
74336;DHT22;62755;-33.398;-70.572;2022-12-15T07:55:20;23.30;36.40
74336;DHT22;62755;-33.398;-70.572;2022-12-15T07:57:49;23.20;36.30
74336;DHT22;62755;-33.398;-70.572;2022-12-15T08:00:21;23.10;36.30
74336;DHT22;62755;-33.398;-70.572;2022-12-15T08:02:50;23.10;36.40
74336;DHT22;62755;-33.398;-70.572;2022-12-15T08:05:20;23.10;36.30
74336;DHT22;62755;-33.398;-70.572;2022-12-15T08:07:50;23.20;36.10
74336;DHT22;62755;-33.398;-70.572;2022-12-15T08:10:19;23.30;35.70
74336;DHT22;62755;-33.398;-70.572;2022-12-15T08:12:49;23.40;35.60
74336;DHT22;62755;-33.398;-70.572;2022-12-15T08:15:20;23.50;35.70
74336;DHT22;62755;-33.398;-70.572;2022-12-15T08:17:50;23.60;35.60
74336;DHT22;62755;-33.398;-70.572;2022-12-15T08:20:19;23.60;35.60
74336;DHT22;62755;-33.398;-70.572;2022-12-15T08:22:49;23.60;35.50
74336;DHT22;62755;-33.398;-70.572;2022-12-15T08:25:19;23.70;35.70
74336;DHT22;62755;-33.398;-70.572;2022-12-15T08:27:50;23.70;35.70
74336;DHT22;62755;-33.398;-70.572;2022-12-15T08:30:21;23.80;35.90
74336;DHT22;62755;-33.398;-70.572;2022-12-15T08:32:51;23.80;35.70
74336;DHT22;62755;-33.398;-70.572;2022-12-15T08:35:21;23.80;35.80
74336;DHT22;62755;-33.398;-70.572;2022-12-15T08:37:50;23.90;35.70
74336;DHT22;62755;-33.398;-70.572;2022-12-15T08:40:20;23.90;35.70
74336;DHT22;62755;-33.398;-70.572;2022-12-15T08:42:49;23.90;35.50
74336;DHT22;62755;-33.398;-70.572;2022-12-15T08:45:21;23.80;35.60
74336;DHT22;62755;-33.398;-70.572;2022-12-15T08:47:50;23.80;35.50
74336;DHT22;62755;-33.398;-70.572;2022-12-15T08:50:19;23.70;35.60
74336;DHT22;62755;-33.398;-70.572;2022-12-15T08:52:49;23.60;35.60
74336;DHT22;62755;-33.398;-70.572;2022-12-15T08:55:18;23.60;35.70
74336;DHT22;62755;-33.398;-70.572;2022-12-15T08:57:49;23.60;35.60
74336;DHT22;62755;-33.398;-70.572;2022-12-15T09:00:21;23.60;35.40
74336;DHT22;62755;-33.398;-70.572;2022-12-15T09:02:51;23.60;35.40
74336;DHT22;62755;-33.398;-70.572;2022-12-15T09:05:20;23.60;35.40
74336;DHT22;62755;-33.398;-70.572;2022-12-15T09:07:54;23.40;35.70
74336;DHT22;62755;-33.398;-70.572;2022-12-15T09:10:25;23.20;35.70
74336;DHT22;62755;-33.398;-70.572;2022-12-15T09:12:54;23.10;36.00
74336;DHT22;62755;-33.398;-70.572;2022-12-15T09:15:25;23.00;36.20
74336;DHT22;62755;-33.398;-70.572;2022-12-15T09:17:55;23.00;36.30
74336;DHT22;62755;-33.398;-70.572;2022-12-15T09:20:24;23.10;36.30
74336;DHT22;62755;-33.398;-70.572;2022-12-15T09:22:54;23.30;36.30
74336;DHT22;62755;-33.398;-70.572;2022-12-15T09:25:23;23.30;36.20
74336;DHT22;62755;-33.398;-70.572;2022-12-15T09:27:53;23.40;36.20
74336;DHT22;62755;-33.398;-70.572;2022-12-15T09:30:27;23.40;36.20
74336;DHT22;62755;-33.398;-70.572;2022-12-15T09:32:56;23.40;36.30
74336;DHT22;62755;-33.398;-70.572;2022-12-15T09:35:26;23.40;36.20
74336;DHT22;62755;-33.398;-70.572;2022-12-15T09:37:56;23.40;36.20
74336;DHT22;62755;-33.398;-70.572;2022-12-15T09:40:26;23.40;36.20
74336;DHT22;62755;-33.398;-70.572;2022-12-15T09:42:56;23.40;36.20
74336;DHT22;62755;-33.398;-70.572;2022-12-15T09:45:33;23.40;36.20
74336;DHT22;62755;-33.398;-70.572;2022-12-15T09:48:09;23.40;36.40
74336;DHT22;62755;-33.398;-70.572;2022-12-15T09:50:40;23.40;36.30
74336;DHT22;62755;-33.398;-70.572;2022-12-15T09:53:14;23.40;36.20
74336;DHT22;62755;-33.398;-70.572;2022-12-15T09:55:47;23.50;36.30
74336;DHT22;62755;-33.398;-70.572;2022-12-15T09:58:24;23.50;36.20
74336;DHT22;62755;-33.398;-70.572;2022-12-15T10:01:03;23.40;36.50
74336;DHT22;62755;-33.398;-70.572;2022-12-15T10:03:48;23.30;36.60
74336;DHT22;62755;-33.398;-70.572;2022-12-15T10:06:20;23.20;36.80
74336;DHT22;62755;-33.398;-70.572;2022-12-15T10:08:55;23.10;36.70
74336;DHT22;62755;-33.398;-70.572;2022-12-15T10:11:39;23.10;36.90
74336;DHT22;62755;-33.398;-70.572;2022-12-15T10:14:21;23.10;37.10
74336;DHT22;62755;-33.398;-70.572;2022-12-15T10:17:01;23.20;37.00
74336;DHT22;62755;-33.398;-70.572;2022-12-15T10:19:36;23.20;37.10
74336;DHT22;62755;-33.398;-70.572;2022-12-15T10:22:12;23.20;37.10
74336;DHT22;62755;-33.398;-70.572;2022-12-15T10:24:42;23.30;37.10
74336;DHT22;62755;-33.398;-70.572;2022-12-15T10:27:21;23.30;36.90
74336;DHT22;62755;-33.398;-70.572;2022-12-15T10:30:00;23.40;37.20
74336;DHT22;62755;-33.398;-70.572;2022-12-15T10:32:43;23.40;37.20
74336;DHT22;62755;-33.398;-70.572;2022-12-15T10:35:16;23.50;37.20
74336;DHT22;62755;-33.398;-70.572;2022-12-15T10:37:46;23.40;37.20
74336;DHT22;62755;-33.398;-70.572;2022-12-15T10:40:18;23.50;37.20
74336;DHT22;62755;-33.398;-70.572;2022-12-15T10:42:49;23.50;37.40
74336;DHT22;62755;-33.398;-70.572;2022-12-15T10:45:37;23.50;37.40
74336;DHT22;62755;-33.398;-70.572;2022-12-15T10:48:18;23.60;37.60
74336;DHT22;62755;-33.398;-70.572;2022-12-15T10:50:48;23.50;37.50
74336;DHT22;62755;-33.398;-70.572;2022-12-15T10:53:37;23.50;37.30
74336;DHT22;62755;-33.398;-70.572;2022-12-15T10:56:12;23.50;37.80
74336;DHT22;62755;-33.398;-70.572;2022-12-15T10:58:49;23.50;37.50
74336;DHT22;62755;-33.398;-70.572;2022-12-15T11:01:20;23.60;37.40
74336;DHT22;62755;-33.398;-70.572;2022-12-15T11:03:54;23.60;37.30
74336;DHT22;62755;-33.398;-70.572;2022-12-15T11:06:25;23.60;37.50
74336;DHT22;62755;-33.398;-70.572;2022-12-15T11:08:56;23.60;37.30
74336;DHT22;62755;-33.398;-70.572;2022-12-15T11:11:45;23.60;37.30
74336;DHT22;62755;-33.398;-70.572;2022-12-15T11:14:39;23.80;37.20
74336;DHT22;62755;-33.398;-70.572;2022-12-15T11:17:14;23.80;37.30
74336;DHT22;62755;-33.398;-70.572;2022-12-15T11:19:49;23.80;37.30
74336;DHT22;62755;-33.398;-70.572;2022-12-15T11:22:25;23.90;37.30
74336;DHT22;62755;-33.398;-70.572;2022-12-15T11:25:00;24.00;37.10
74336;DHT22;62755;-33.398;-70.572;2022-12-15T11:27:33;24.10;37.10
74336;DHT22;62755;-33.398;-70.572;2022-12-15T11:30:12;24.20;36.30
74336;DHT22;62755;-33.398;-70.572;2022-12-15T11:32:45;24.30;36.20
74336;DHT22;62755;-33.398;-70.572;2022-12-15T11:35:20;24.40;36.20
74336;DHT22;62755;-33.398;-70.572;2022-12-15T11:37:51;24.40;36.20
74336;DHT22;62755;-33.398;-70.572;2022-12-15T11:40:36;24.40;36.30
74336;DHT22;62755;-33.398;-70.572;2022-12-15T11:46:20;24.50;36.50
74336;DHT22;62755;-33.398;-70.572;2022-12-15T11:49:26;24.50;36.50
74336;DHT22;62755;-33.398;-70.572;2022-12-15T11:52:03;24.50;36.30
74336;DHT22;62755;-33.398;-70.572;2022-12-15T11:54:39;24.50;36.20
74336;DHT22;62755;-33.398;-70.572;2022-12-15T11:57:30;24.50;36.60
74336;DHT22;62755;-33.398;-70.572;2022-12-15T12:00:10;24.40;36.90
74336;DHT22;62755;-33.398;-70.572;2022-12-15T12:02:53;24.40;37.60
74336;DHT22;62755;-33.398;-70.572;2022-12-15T12:08:43;24.30;38.30
74336;DHT22;62755;-33.398;-70.572;2022-12-15T12:11:15;24.20;38.20
74336;DHT22;62755;-33.398;-70.572;2022-12-15T12:14:03;24.20;38.20
74336;DHT22;62755;-33.398;-70.572;2022-12-15T12:16:39;24.20;38.60
74336;DHT22;62755;-33.398;-70.572;2022-12-15T12:19:17;24.20;38.60
74336;DHT22;62755;-33.398;-70.572;2022-12-15T12:21:48;24.00;38.80
74336;DHT22;62755;-33.398;-70.572;2022-12-15T12:24:24;24.00;38.80
74336;DHT22;62755;-33.398;-70.572;2022-12-15T12:26:58;23.90;39.20
74336;DHT22;62755;-33.398;-70.572;2022-12-15T12:29:32;23.90;39.30
74336;DHT22;62755;-33.398;-70.572;2022-12-15T12:32:06;23.90;39.30
74336;DHT22;62755;-33.398;-70.572;2022-12-15T12:34:53;24.00;39.60
74336;DHT22;62755;-33.398;-70.572;2022-12-15T12:37:30;24.00;39.20
74336;DHT22;62755;-33.398;-70.572;2022-12-15T12:40:06;24.10;38.60
74336;DHT22;62755;-33.398;-70.572;2022-12-15T12:42:48;24.20;38.70
74336;DHT22;62755;-33.398;-70.572;2022-12-15T12:45:21;24.20;38.90
74336;DHT22;62755;-33.398;-70.572;2022-12-15T12:47:54;24.30;38.60
74336;DHT22;62755;-33.398;-70.572;2022-12-15T12:50:27;24.40;38.40
74336;DHT22;62755;-33.398;-70.572;2022-12-15T12:52:59;24.50;38.20
74336;DHT22;62755;-33.398;-70.572;2022-12-15T12:55:37;24.50;38.50
74336;DHT22;62755;-33.398;-70.572;2022-12-15T12:58:31;24.60;38.50
74336;DHT22;62755;-33.398;-70.572;2022-12-15T13:01:17;24.70;38.30
74336;DHT22;62755;-33.398;-70.572;2022-12-15T13:04:05;24.80;38.00
74336;DHT22;62755;-33.398;-70.572;2022-12-15T13:07:00;24.80;37.90
74336;DHT22;62755;-33.398;-70.572;2022-12-15T13:09:41;24.90;38.00
74336;DHT22;62755;-33.398;-70.572;2022-12-15T13:12:34;24.80;38.20
74336;DHT22;62755;-33.398;-70.572;2022-12-15T13:15:11;24.90;38.10
74336;DHT22;62755;-33.398;-70.572;2022-12-15T13:17:47;25.00;37.90
74336;DHT22;62755;-33.398;-70.572;2022-12-15T13:20:24;25.00;38.00
74336;DHT22;62755;-33.398;-70.572;2022-12-15T13:22:55;25.00;38.10
74336;DHT22;62755;-33.398;-70.572;2022-12-15T13:25:45;25.10;37.70
74336;DHT22;62755;-33.398;-70.572;2022-12-15T13:28:47;25.10;37.60
74336;DHT22;62755;-33.398;-70.572;2022-12-15T13:31:32;25.20;37.50
74336;DHT22;62755;-33.398;-70.572;2022-12-15T13:34:17;25.30;37.10
74336;DHT22;62755;-33.398;-70.572;2022-12-15T13:37:15;25.30;37.20
74336;DHT22;62755;-33.398;-70.572;2022-12-15T13:39:56;25.30;37.00
74336;DHT22;62755;-33.398;-70.572;2022-12-15T13:42:37;25.30;37.10
74336;DHT22;62755;-33.398;-70.572;2022-12-15T13:45:27;25.30;37.10
74336;DHT22;62755;-33.398;-70.572;2022-12-15T13:48:01;25.30;37.10
74336;DHT22;62755;-33.398;-70.572;2022-12-15T13:50:42;25.30;36.90
74336;DHT22;62755;-33.398;-70.572;2022-12-15T13:53:18;25.40;37.10
74336;DHT22;62755;-33.398;-70.572;2022-12-15T13:55:51;25.40;37.10
74336;DHT22;62755;-33.398;-70.572;2022-12-15T13:58:22;25.40;37.10
74336;DHT22;62755;-33.398;-70.572;2022-12-15T14:00:55;25.40;37.20
74336;DHT22;62755;-33.398;-70.572;2022-12-15T14:03:25;25.50;36.90
74336;DHT22;62755;-33.398;-70.572;2022-12-15T14:05:56;25.60;37.00
74336;DHT22;62755;-33.398;-70.572;2022-12-15T14:08:27;25.60;36.90
74336;DHT22;62755;-33.398;-70.572;2022-12-15T14:10:59;25.70;36.70
74336;DHT22;62755;-33.398;-70.572;2022-12-15T14:13:32;25.70;36.50
74336;DHT22;62755;-33.398;-70.572;2022-12-15T14:16:16;25.80;36.60
74336;DHT22;62755;-33.398;-70.572;2022-12-15T14:19:03;25.80;36.40
74336;DHT22;62755;-33.398;-70.572;2022-12-15T14:21:32;25.80;36.40
74336;DHT22;62755;-33.398;-70.572;2022-12-15T14:24:20;25.80;36.30
74336;DHT22;62755;-33.398;-70.572;2022-12-15T14:26:51;25.80;36.40
74336;DHT22;62755;-33.398;-70.572;2022-12-15T14:29:20;25.90;36.50
74336;DHT22;62755;-33.398;-70.572;2022-12-15T14:31:53;25.90;36.30
74336;DHT22;62755;-33.398;-70.572;2022-12-15T14:34:26;26.00;36.30
74336;DHT22;62755;-33.398;-70.572;2022-12-15T14:37:00;26.00;36.10
74336;DHT22;62755;-33.398;-70.572;2022-12-15T14:39:33;26.10;36.00
74336;DHT22;62755;-33.398;-70.572;2022-12-15T14:42:05;26.20;36.00
74336;DHT22;62755;-33.398;-70.572;2022-12-15T14:44:36;26.20;36.10
74336;DHT22;62755;-33.398;-70.572;2022-12-15T14:47:18;26.40;35.90
74336;DHT22;62755;-33.398;-70.572;2022-12-15T14:49:49;26.40;36.00
74336;DHT22;62755;-33.398;-70.572;2022-12-15T14:52:26;26.40;35.80
74336;DHT22;62755;-33.398;-70.572;2022-12-15T14:54:57;26.50;35.40
74336;DHT22;62755;-33.398;-70.572;2022-12-15T14:57:39;26.50;35.50
74336;DHT22;62755;-33.398;-70.572;2022-12-15T15:00:25;26.60;35.40
74336;DHT22;62755;-33.398;-70.572;2022-12-15T15:05:44;26.60;35.20
74336;DHT22;62755;-33.398;-70.572;2022-12-15T15:08:15;26.60;35.00
74336;DHT22;62755;-33.398;-70.572;2022-12-15T15:10:47;26.70;34.90
74336;DHT22;62755;-33.398;-70.572;2022-12-15T15:13:19;26.80;35.20
74336;DHT22;62755;-33.398;-70.572;2022-12-15T15:15:53;26.80;34.90
74336;DHT22;62755;-33.398;-70.572;2022-12-15T15:18:24;26.80;34.70
74336;DHT22;62755;-33.398;-70.572;2022-12-15T15:20:59;26.90;34.80
74336;DHT22;62755;-33.398;-70.572;2022-12-15T15:23:31;26.90;34.70
74336;DHT22;62755;-33.398;-70.572;2022-12-15T15:26:08;26.90;34.90
74336;DHT22;62755;-33.398;-70.572;2022-12-15T15:28:38;27.00;34.20
74336;DHT22;62755;-33.398;-70.572;2022-12-15T15:31:27;27.10;34.40
74336;DHT22;62755;-33.398;-70.572;2022-12-15T15:33:59;27.20;34.10
74336;DHT22;62755;-33.398;-70.572;2022-12-15T15:36:31;27.30;33.90
74336;DHT22;62755;-33.398;-70.572;2022-12-15T15:39:03;27.30;33.80
74336;DHT22;62755;-33.398;-70.572;2022-12-15T15:41:37;27.40;33.80
74336;DHT22;62755;-33.398;-70.572;2022-12-15T15:44:12;27.50;33.70
74336;DHT22;62755;-33.398;-70.572;2022-12-15T15:46:45;27.50;33.20
74336;DHT22;62755;-33.398;-70.572;2022-12-15T15:49:18;27.60;33.10
74336;DHT22;62755;-33.398;-70.572;2022-12-15T15:51:50;27.70;33.00
74336;DHT22;62755;-33.398;-70.572;2022-12-15T15:54:26;27.70;32.20